Time;durP1;ratioP1;P1;durP2;ratioP2;P2;SDS_P1;SDS_P2;PMS_P1;PMS_P2;Temp;Humidity;BMP_temperature;BMP_pressure;BME280_temperature;BME280_humidity;BME280_pressure;Samples;Min_cycle;Max_cycle;Signal;HPM_P1;HPM_P2
2024/01/13 00:02:21;;;;;;;10.00;4.88;;;;;;;;;;4970918;28;20060;-60
2024/01/13 00:04:47;;;;;;;10.38;4.55;;;;;;;;;;5022754;28;20038;-60
2024/01/13 00:07:14;;;;;;;13.05;5.38;;;;;;;;;;5002901;28;20152;-63
2024/01/13 00:09:41;;;;;;;10.15;4.78;;;;;;;;;;4990406;28;20050;-60
2024/01/13 00:12:09;;;;;;;10.80;4.80;;;;;;;;;;4981279;28;20054;-60
2024/01/13 00:14:35;;;;;;;11.50;4.90;;;;;;;;;;4960989;28;20050;-60
2024/01/13 00:17:02;;;;;;;11.77;5.10;;;;;;;;;;4974300;28;20277;-60
2024/01/13 00:19:29;;;;;;;10.98;4.97;;;;;;;;;;4956126;28;20137;-60
2024/01/13 00:21:56;;;;;;;11.50;5.10;;;;;;;;;;4985641;28;20117;-60
2024/01/13 00:24:22;;;;;;;11.20;4.38;;;;;;;;;;4977852;28;20149;-60
2024/01/13 00:26:49;;;;;;;14.02;5.40;;;;;;;;;;4991205;28;20138;-60
2024/01/13 00:29:17;;;;;;;11.38;4.45;;;;;;;;;;4985227;28;20132;-61
2024/01/13 00:31:43;;;;;;;19.88;7.63;;;;;;;;;;4970663;28;20062;-60
2024/01/13 00:34:10;;;;;;;18.00;6.18;;;;;;;;;;4973047;28;20082;-60
2024/01/13 00:36:37;;;;;;;23.58;8.73;;;;;;;;;;4972848;28;20073;-60
2024/01/13 00:39:04;;;;;;;22.38;9.20;;;;;;;;;;4958786;28;20097;-60
2024/01/13 00:41:31;;;;;;;13.25;5.30;;;;;;;;;;4963467;28;20150;-60
2024/01/13 00:43:59;;;;;;;13.25;4.95;;;;;;;;;;5004719;28;20102;-59
2024/01/13 00:46:27;;;;;;;;;;;;;;;;;;5006309;28;20055;-60
2024/01/13 00:48:54;;;;;;;13.48;4.57;;;;;;;;;;4975388;28;19965;-63
2024/01/13 00:51:21;;;;;;;9.95;4.43;;;;;;;;;;4968156;28;20064;-60
2024/01/13 00:53:50;;;;;;;10.60;3.92;;;;;;;;;;4973266;28;20127;-60
2024/01/13 00:56:17;;;;;;;12.27;4.82;;;;;;;;;;4955659;28;20138;-60
2024/01/13 00:58:43;;;;;;;7.85;3.88;;;;;;;;;;4978336;28;20047;-60
2024/01/13 01:01:10;;;;;;;9.82;4.00;;;;;;;;;;4950475;28;20119;-61
2024/01/13 01:03:38;;;;;;;10.30;4.28;;;;;;;;;;5007041;28;20050;-60
2024/01/13 01:06:05;;;;;;;8.68;3.42;;;;;;;;;;4991661;28;20133;-60
2024/01/13 01:08:32;;;;;;;11.18;4.63;;;;;;;;;;5014147;28;20164;-60
2024/01/13 01:10:58;;;;;;;9.02;3.72;;;;;;;;;;4983872;28;20051;-60
2024/01/13 01:13:25;;;;;;;9.85;3.72;;;;;;;;;;4966954;28;20058;-60
2024/01/13 01:15:52;;;;;;;11.50;4.00;;;;;;;;;;4994646;28;20062;-60
2024/01/13 01:18:18;;;;;;;12.68;4.07;;;;;;;;;;4979164;28;20054;-60
2024/01/13 01:20:47;;;;;;;12.48;4.53;;;;;;;;;;4993490;28;20046;-60
2024/01/13 01:23:13;;;;;;;;;;;;;;;;;;4963387;28;20050;-62
2024/01/13 01:25:40;;;;;;;8.13;3.53;;;;;;;;;;5007339;28;19957;-60
2024/01/13 01:28:06;;;;;;;8.00;3.60;;;;;;;;;;4993297;28;20109;-60
2024/01/13 01:30:33;;;;;;;9.80;3.90;;;;;;;;;;4978632;28;20082;-60
2024/01/13 01:33:00;;;;;;;7.63;3.80;;;;;;;;;;4972731;28;20102;-60
2024/01/13 01:35:26;;;;;;;9.40;3.80;;;;;;;;;;4971111;28;20169;-60
2024/01/13 01:37:54;;;;;;;7.35;3.28;;;;;;;;;;4976160;28;20046;-60
2024/01/13 01:40:26;;;;;;;8.35;3.30;;;;;;;;;;4992772;28;20133;-61
2024/01/13 01:42:53;;;;;;;17.40;6.13;;;;;;;;;;4973797;28;20086;-60
2024/01/13 01:45:20;;;;;;;24.42;8.68;;;;;;;;;;4969419;28;20069;-61
2024/01/13 01:47:47;;;;;;;33.78;12.75;;;;;;;;;;5006376;28;20116;-60
2024/01/13 01:50:14;;;;;;;14.95;6.47;;;;;;;;;;4974998;28;20039;-61
2024/01/13 01:52:41;;;;;;;12.55;4.15;;;;;;;;;;4962795;28;20066;-60
2024/01/13 01:55:10;;;;;;;12.30;3.90;;;;;;;;;;4990651;28;20087;-60
2024/01/13 01:57:39;;;;;;;8.05;3.10;;;;;;;;;;4975478;28;20057;-62
2024/01/13 02:00:07;;;;;;;;;;;;;;;;;;5007793;28;20146;-60
2024/01/13 02:02:34;;;;;;;6.37;2.40;;;;;;;;;;4958692;28;20012;-59
2024/01/13 02:05:02;;;;;;;9.18;3.25;;;;;;;;;;4990959;28;20381;-60
2024/01/13 02:07:29;;;;;;;8.50;3.05;;;;;;;;;;5004048;28;20054;-61
2024/01/13 02:09:56;;;;;;;8.65;3.40;;;;;;;;;;4990596;28;20054;-59
2024/01/13 02:12:25;;;;;;;7.38;3.15;;;;;;;;;;4971474;28;20112;-63
2024/01/13 02:14:54;;;;;;;8.30;3.47;;;;;;;;;;4974522;28;20047;-61
2024/01/13 02:17:20;;;;;;;;;;;;;;;;;;4972670;28;20054;-60
2024/01/13 02:19:47;;;;;;;5.78;2.50;;;;;;;;;;5006593;28;19926;-60
2024/01/13 02:22:15;;;;;;;8.27;3.53;;;;;;;;;;4996929;28;20050;-59
2024/01/13 02:24:42;;;;;;;6.60;2.75;;;;;;;;;;4975595;28;20050;-60
2024/01/13 02:27:08;;;;;;;8.07;3.50;;;;;;;;;;4974159;28;20121;-60
2024/01/13 02:29:35;;;;;;;8.63;3.15;;;;;;;;;;5009477;28;20182;-61
2024/01/13 02:32:02;;;;;;;8.52;3.70;;;;;;;;;;4988378;28;20055;-59
2024/01/13 02:34:28;;;;;;;6.88;3.05;;;;;;;;;;4955341;28;20113;-60
2024/01/13 02:36:55;;;;;;;6.93;2.97;;;;;;;;;;4972020;28;20046;-59
2024/01/13 02:39:24;;;;;;;8.70;3.15;;;;;;;;;;4966254;28;20049;-59
2024/01/13 02:41:50;;;;;;;7.22;3.38;;;;;;;;;;4987388;28;20064;-60
2024/01/13 02:44:17;;;;;;;8.35;2.85;;;;;;;;;;4982626;28;20106;-60
2024/01/13 02:46:44;;;;;;;7.00;2.95;;;;;;;;;;5002574;28;20065;-60
2024/01/13 02:49:11;;;;;;;6.45;3.05;;;;;;;;;;4973297;28;20120;-60
2024/01/13 02:51:38;;;;;;;6.20;2.92;;;;;;;;;;4968062;28;20063;-60
2024/01/13 02:54:05;;;;;;;7.60;3.92;;;;;;;;;;4977540;28;20141;-60
2024/01/13 02:56:33;;;;;;;6.70;3.33;;;;;;;;;;4980247;28;20137;-60
2024/01/13 02:59:00;;;;;;;;;;;;;;;;;;4985921;28;20065;-60
2024/01/13 03:01:28;;;;;;;5.85;2.67;;;;;;;;;;4985600;28;20015;-60
2024/01/13 03:03:55;;;;;;;8.20;3.33;;;;;;;;;;5007504;28;20058;-63
2024/01/13 03:06:22;;;;;;;8.25;3.33;;;;;;;;;;4972901;28;20058;-60
2024/01/13 03:08:49;;;;;;;8.23;3.65;;;;;;;;;;4970802;28;20061;-60
2024/01/13 03:11:16;;;;;;;6.03;3.03;;;;;;;;;;4946585;28;20064;-60
2024/01/13 03:13:44;;;;;;;8.98;3.72;;;;;;;;;;5004132;28;20058;-60
2024/01/13 03:16:11;;;;;;;7.40;3.65;;;;;;;;;;5006631;28;20053;-61
2024/01/13 03:18:38;;;;;;;8.48;3.90;;;;;;;;;;4975552;28;20058;-60
2024/01/13 03:21:05;;;;;;;9.80;3.85;;;;;;;;;;4985121;28;20176;-60
2024/01/13 03:23:31;;;;;;;7.68;3.33;;;;;;;;;;4955852;28;20070;-60
2024/01/13 03:25:58;;;;;;;9.68;4.25;;;;;;;;;;4972643;28;20102;-60
2024/01/13 03:28:25;;;;;;;9.65;4.00;;;;;;;;;;4957698;28;20054;-60
2024/01/13 03:30:54;;;;;;;12.07;4.95;;;;;;;;;;4958181;28;20292;-60
2024/01/13 03:33:20;;;;;;;12.88;5.07;;;;;;;;;;4987450;28;20204;-62
2024/01/13 03:35:47;;;;;;;12.70;4.95;;;;;;;;;;4977315;28;20136;-60
2024/01/13 03:38:14;;;;;;;12.52;5.38;;;;;;;;;;4976706;28;20078;-60
2024/01/13 03:40:43;;;;;;;12.07;5.32;;;;;;;;;;5019422;28;20077;-60
2024/01/13 03:43:09;;;;;;;12.65;5.78;;;;;;;;;;4979196;28;20057;-60
2024/01/13 03:45:36;;;;;;;11.68;5.65;;;;;;;;;;5003504;28;20046;-60
2024/01/13 03:48:05;;;;;;;15.02;5.82;;;;;;;;;;4976019;28;20046;-60
2024/01/13 03:50:32;;;;;;;14.35;5.93;;;;;;;;;;4993592;28;20097;-60
2024/01/13 03:52:59;;;;;;;16.52;6.22;;;;;;;;;;4983312;28;20062;-60
2024/01/13 03:55:29;;;;;;;14.35;6.40;;;;;;;;;;4993825;28;20050;-61
2024/01/13 03:57:56;;;;;;;13.07;5.53;;;;;;;;;;4995332;28;20066;-60
2024/01/13 04:00:22;;;;;;;14.38;6.15;;;;;;;;;;4993275;28;20058;-60
2024/01/13 04:02:49;;;;;;;13.82;6.03;;;;;;;;;;4958085;28;20046;-60
2024/01/13 04:05:17;;;;;;;15.95;6.07;;;;;;;;;;4976800;28;20050;-60
2024/01/13 04:07:44;;;;;;;14.40;6.18;;;;;;;;;;4979067;28;20056;-60
2024/01/13 04:10:11;;;;;;;14.38;6.57;;;;;;;;;;4980586;28;20113;-60
2024/01/13 04:12:37;;;;;;;13.75;5.80;;;;;;;;;;4965797;28;20151;-60
2024/01/13 04:15:05;;;;;;;14.68;5.55;;;;;;;;;;4978071;28;20112;-59
2024/01/13 04:17:32;;;;;;;16.38;6.47;;;;;;;;;;4975953;28;20113;-60
2024/01/13 04:19:59;;;;;;;16.23;5.75;;;;;;;;;;4981201;28;20145;-60
2024/01/13 04:22:27;;;;;;;11.85;5.30;;;;;;;;;;4998866;28;20069;-61
2024/01/13 04:24:53;;;;;;;12.50;5.32;;;;;;;;;;4976865;28;20278;-59
2024/01/13 04:27:21;;;;;;;12.68;5.38;;;;;;;;;;5008482;28;20055;-60
2024/01/13 04:29:47;;;;;;;15.57;6.05;;;;;;;;;;4978599;28;20054;-61
2024/01/13 04:32:14;;;;;;;13.32;5.25;;;;;;;;;;5007068;28;20046;-59
2024/01/13 04:34:40;;;;;;;9.00;3.30;;;;;;;;;;4990385;28;20081;-60
2024/01/13 04:37:07;;;;;;;12.80;5.78;;;;;;;;;;4978410;28;20117;-60
2024/01/13 04:39:35;;;;;;;11.43;5.07;;;;;;;;;;5000997;28;20168;-60
2024/01/13 04:42:02;;;;;;;10.50;4.80;;;;;;;;;;4965511;28;20054;-60
2024/01/13 04:44:29;;;;;;;12.60;6.05;;;;;;;;;;5010724;28;20058;-60
2024/01/13 04:46:55;;;;;;;10.13;4.93;;;;;;;;;;4993202;28;20073;-60
2024/01/13 04:49:22;;;;;;;9.63;4.28;;;;;;;;;;4989884;28;20058;-60
2024/01/13 04:51:49;;;;;;;12.75;5.45;;;;;;;;;;4975801;28;20062;-60
2024/01/13 04:54:16;;;;;;;10.40;4.40;;;;;;;;;;4979811;28;20054;-60
2024/01/13 04:56:45;;;;;;;10.43;3.97;;;;;;;;;;4980242;28;20101;-59
2024/01/13 04:59:12;;;;;;;12.38;5.10;;;;;;;;;;4975744;28;20054;-60
2024/01/13 05:01:39;;;;;;;15.00;6.38;;;;;;;;;;4985654;28;20042;-61
2024/01/13 05:04:05;;;;;;;9.45;4.20;;;;;;;;;;5000153;28;20065;-59
2024/01/13 05:06:35;;;;;;;12.40;5.22;;;;;;;;;;4978348;28;20078;-60
2024/01/13 05:09:02;;;;;;;11.73;4.80;;;;;;;;;;4980769;28;20360;-60
2024/01/13 05:11:29;;;;;;;13.95;5.93;;;;;;;;;;4960189;28;20053;-60
2024/01/13 05:13:57;;;;;;;12.48;5.40;;;;;;;;;;4979658;28;20069;-60
2024/01/13 05:16:24;;;;;;;13.70;6.03;;;;;;;;;;4975964;28;20053;-60
2024/01/13 05:18:50;;;;;;;14.32;5.85;;;;;;;;;;5011351;28;20050;-60
2024/01/13 05:21:20;;;;;;;12.02;5.47;;;;;;;;;;4995691;28;20050;-62
2024/01/13 05:23:46;;;;;;;13.20;5.93;;;;;;;;;;4985634;28;20050;-60
2024/01/13 05:26:13;;;;;;;11.20;5.38;;;;;;;;;;4973963;28;20179;-60
2024/01/13 05:28:40;;;;;;;11.43;5.32;;;;;;;;;;4959249;28;20142;-60
2024/01/13 05:31:08;;;;;;;16.70;6.25;;;;;;;;;;4970960;28;20059;-60
2024/01/13 05:33:35;;;;;;;13.32;5.78;;;;;;;;;;4972875;28;20054;-60
2024/01/13 05:36:05;;;;;;;13.43;5.95;;;;;;;;;;5007434;28;20061;-60
2024/01/13 05:38:31;;;;;;;9.75;4.65;;;;;;;;;;4979069;28;20137;-60
2024/01/13 05:40:58;;;;;;;13.55;5.43;;;;;;;;;;4993644;28;20100;-60
2024/01/13 05:43:25;;;;;;;12.43;5.55;;;;;;;;;;4974694;28;20053;-59
2024/01/13 05:45:52;;;;;;;10.63;4.85;;;;;;;;;;4978727;28;20062;-60
2024/01/13 05:48:20;;;;;;;12.50;5.90;;;;;;;;;;4977730;28;20062;-59
2024/01/13 05:50:50;;;;;;;11.70;5.00;;;;;;;;;;4988397;28;20054;-60
2024/01/13 05:53:19;;;;;;;11.20;4.78;;;;;;;;;;5004310;28;20062;-60
2024/01/13 05:55:46;;;;;;;12.65;4.90;;;;;;;;;;4978598;28;20050;-60
2024/01/13 05:58:13;;;;;;;9.70;4.50;;;;;;;;;;4978033;28;20066;-59
2024/01/13 06:00:40;;;;;;;10.02;4.50;;;;;;;;;;4980617;28;20046;-60
2024/01/13 06:03:07;;;;;;;8.80;4.40;;;;;;;;;;5003711;28;20058;-60
2024/01/13 06:05:37;;;;;;;13.98;5.07;;;;;;;;;;4970785;28;20057;-60
2024/01/13 06:08:04;;;;;;;9.13;4.25;;;;;;;;;;4976889;28;20050;-60
2024/01/13 06:10:31;;;;;;;8.07;3.78;;;;;;;;;;5004698;28;20061;-60
2024/01/13 06:13:01;;;;;;;8.15;4.00;;;;;;;;;;4982781;28;20152;-60
2024/01/13 06:15:28;;;;;;;7.45;3.60;;;;;;;;;;4998871;28;20124;-60
2024/01/13 06:17:55;;;;;;;10.70;4.60;;;;;;;;;;4977087;28;20058;-60
2024/01/13 06:20:24;;;;;;;9.45;4.15;;;;;;;;;;4974322;28;20054;-60
2024/01/13 06:22:52;;;;;;;8.10;4.07;;;;;;;;;;5000800;28;20046;-60
2024/01/13 06:25:19;;;;;;;11.50;4.45;;;;;;;;;;4960580;28;20109;-61
2024/01/13 06:27:46;;;;;;;10.18;4.13;;;;;;;;;;5004124;28;20053;-60
2024/01/13 06:30:13;;;;;;;8.35;4.18;;;;;;;;;;5005591;28;20077;-60
2024/01/13 06:32:40;;;;;;;10.50;3.78;;;;;;;;;;4969112;28;20134;-60
2024/01/13 06:35:07;;;;;;;9.20;3.67;;;;;;;;;;4981225;28;20078;-60
2024/01/13 06:37:34;;;;;;;9.50;3.78;;;;;;;;;;4969102;28;20066;-60
2024/01/13 06:40:02;;;;;;;9.40;3.83;;;;;;;;;;4990282;28;20079;-60
2024/01/13 06:42:29;;;;;;;;;;;;;;;;;;4971909;28;20069;-60
2024/01/13 06:44:56;;;;;;;9.43;3.65;;;;;;;;;;4976287;28;19999;-59
2024/01/13 06:47:23;;;;;;;10.35;4.10;;;;;;;;;;5004439;28;20060;-60
2024/01/13 06:49:49;;;;;;;8.95;3.75;;;;;;;;;;4973112;28;20105;-59
2024/01/13 06:52:16;;;;;;;9.05;4.53;;;;;;;;;;4992667;28;20126;-60
2024/01/13 06:54:43;;;;;;;9.63;4.05;;;;;;;;;;4957943;28;20082;-59
2024/01/13 06:57:13;;;;;;;11.63;4.95;;;;;;;;;;4970369;28;20051;-60
2024/01/13 06:59:40;;;;;;;9.48;4.00;;;;;;;;;;4967896;28;21640;-59
2024/01/13 07:02:07;;;;;;;13.32;5.43;;;;;;;;;;4978763;28;20066;-59
2024/01/13 07:04:37;;;;;;;10.57;4.05;;;;;;;;;;4976768;28;20092;-59
2024/01/13 07:07:04;;;;;;;10.32;4.72;;;;;;;;;;4978902;28;20134;-60
2024/01/13 07:09:33;;;;;;;13.20;4.82;;;;;;;;;;4974464;28;20307;-59
2024/01/13 07:11:59;;;;;;;10.68;4.32;;;;;;;;;;4970443;28;20070;-60
2024/01/13 07:14:28;;;;;;;13.00;5.15;;;;;;;;;;5007167;28;20080;-59
2024/01/13 07:16:54;;;;;;;11.25;4.60;;;;;;;;;;4992924;28;20081;-59
2024/01/13 07:19:22;;;;;;;14.05;5.18;;;;;;;;;;4964806;28;20054;-60
2024/01/13 07:21:49;;;;;;;13.02;4.78;;;;;;;;;;5003687;28;20065;-60
2024/01/13 07:24:16;;;;;;;12.48;4.72;;;;;;;;;;4979488;28;20160;-59
2024/01/13 07:26:45;;;;;;;16.45;5.80;;;;;;;;;;4980492;28;20061;-59
2024/01/13 07:29:12;;;;;;;11.25;4.60;;;;;;;;;;5010348;28;20060;-60
2024/01/13 07:31:40;;;;;;;13.93;5.28;;;;;;;;;;4990981;28;20274;-60
2024/01/13 07:34:07;;;;;;;12.93;4.97;;;;;;;;;;4978592;28;20444;-60
2024/01/13 07:36:34;;;;;;;11.45;4.43;;;;;;;;;;4991575;28;20109;-60
2024/01/13 07:39:01;;;;;;;13.88;4.90;;;;;;;;;;5011484;28;20089;-60
2024/01/13 07:41:27;;;;;;;13.18;4.90;;;;;;;;;;4972136;28;20070;-59
2024/01/13 07:43:54;;;;;;;14.88;5.40;;;;;;;;;;4967667;28;20105;-59
2024/01/13 07:46:21;;;;;;;14.52;4.88;;;;;;;;;;4976340;28;20047;-59
2024/01/13 07:48:49;;;;;;;13.80;5.15;;;;;;;;;;4975758;28;20105;-59
2024/01/13 07:51:16;;;;;;;14.43;4.78;;;;;;;;;;4942978;28;20132;-60
2024/01/13 07:53:43;;;;;;;12.02;4.70;;;;;;;;;;5001879;28;20054;-59
2024/01/13 07:56:12;;;;;;;13.73;5.15;;;;;;;;;;4979102;28;20058;-60
2024/01/13 07:58:39;;;;;;;14.95;5.68;;;;;;;;;;4978988;28;20058;-60
2024/01/13 08:01:06;;;;;;;12.68;5.32;;;;;;;;;;4984758;28;20047;-60
2024/01/13 08:03:33;;;;;;;14.27;5.55;;;;;;;;;;4973110;28;20042;-59
2024/01/13 08:06:02;;;;;;;14.38;5.75;;;;;;;;;;5013225;28;20038;-59
2024/01/13 08:08:28;;;;;;;11.75;4.82;;;;;;;;;;4978919;28;20053;-59
2024/01/13 08:10:55;;;;;;;13.57;5.40;;;;;;;;;;4973087;28;20050;-60
2024/01/13 08:13:22;;;;;;;12.13;4.95;;;;;;;;;;5005091;28;20183;-60
2024/01/13 08:15:49;;;;;;;12.80;5.18;;;;;;;;;;4978188;28;20054;-59
2024/01/13 08:18:16;;;;;;;12.18;4.25;;;;;;;;;;4978895;28;20038;-59
2024/01/13 08:20:42;;;;;;;14.10;5.38;;;;;;;;;;5010910;28;20125;-60
2024/01/13 08:23:13;;;;;;;14.60;5.32;;;;;;;;;;5000372;28;20053;-60
2024/01/13 08:25:40;;;;;;;11.98;5.03;;;;;;;;;;4978889;28;20061;-59
2024/01/13 08:28:07;;;;;;;10.02;3.50;;;;;;;;;;4977994;28;20042;-59
2024/01/13 08:30:34;;;;;;;8.77;3.83;;;;;;;;;;5012310;28;20149;-59
2024/01/13 08:33:00;;;;;;;12.18;4.93;;;;;;;;;;4994584;28;20053;-59
2024/01/13 08:35:27;;;;;;;13.32;5.35;;;;;;;;;;4974703;28;20059;-60
2024/01/13 08:37:56;;;;;;;13.32;5.05;;;;;;;;;;5009446;28;20077;-59
2024/01/13 08:40:26;;;;;;;12.90;5.50;;;;;;;;;;4986833;28;20047;-62
2024/01/13 08:42:53;;;;;;;12.40;5.53;;;;;;;;;;4997784;28;20052;-62
2024/01/13 08:45:25;;;;;;;13.07;5.60;;;;;;;;;;4971044;28;20081;-63
2024/01/13 08:47:52;;;;;;;14.57;5.50;;;;;;;;;;4978685;28;20061;-60
2024/01/13 08:50:19;;;;;;;12.05;5.55;;;;;;;;;;5010839;28;20046;-60
2024/01/13 08:52:51;;;;;;;15.98;5.82;;;;;;;;;;4989871;28;20168;-60
2024/01/13 08:55:18;;;;;;;13.80;6.10;;;;;;;;;;4963357;28;20129;-61
2024/01/13 08:57:47;;;;;;;10.38;4.50;;;;;;;;;;4974713;28;20047;-60
2024/01/13 09:00:14;;;;;;;15.85;5.53;;;;;;;;;;4975426;28;20055;-60
2024/01/13 09:02:41;;;;;;;13.48;5.20;;;;;;;;;;4996320;28;20046;-60
2024/01/13 09:05:08;;;;;;;11.55;4.25;;;;;;;;;;5011251;28;20073;-60
2024/01/13 09:07:36;;;;;;;13.43;5.22;;;;;;;;;;5005779;28;20046;-60
2024/01/13 09:10:06;;;;;;;12.85;6.20;;;;;;;;;;4982411;28;20057;-60
2024/01/13 09:12:33;;;;;;;11.23;5.00;;;;;;;;;;5007926;28;20045;-60
2024/01/13 09:15:01;;;;;;;14.07;6.25;;;;;;;;;;5011434;28;20054;-60
2024/01/13 09:17:28;;;;;;;11.10;4.97;;;;;;;;;;4973685;28;20069;-62
2024/01/13 09:19:54;;;;;;;12.20;6.05;;;;;;;;;;4979684;28;20109;-60
2024/01/13 09:22:21;;;;;;;13.68;5.88;;;;;;;;;;5001435;28;20076;-59
2024/01/13 09:24:48;;;;;;;12.93;5.30;;;;;;;;;;5005917;28;20139;-60
2024/01/13 09:27:21;;;;;;;12.55;5.28;;;;;;;;;;5008998;28;20047;-61
2024/01/13 09:29:48;;;;;;;15.15;6.50;;;;;;;;;;4994045;28;20077;-60
2024/01/13 09:32:19;;;;;;;11.73;5.53;;;;;;;;;;4971733;28;20099;-60
2024/01/13 09:34:46;;;;;;;11.05;4.90;;;;;;;;;;5001946;28;20101;-60
2024/01/13 09:37:17;;;;;;;11.35;4.95;;;;;;;;;;5016513;28;20133;-60
2024/01/13 09:39:44;;;;;;;7.30;3.95;;;;;;;;;;5007618;28;20058;-60
2024/01/13 09:42:16;;;;;;;11.15;3.75;;;;;;;;;;4998289;28;21335;-60
2024/01/13 09:44:43;;;;;;;18.77;7.53;;;;;;;;;;5009838;28;20058;-61
2024/01/13 09:47:10;;;;;;;9.80;5.07;;;;;;;;;;5007802;28;20050;-60
2024/01/13 09:49:39;;;;;;;8.20;3.75;;;;;;;;;;5004543;28;22230;-60
2024/01/13 09:52:07;;;;;;;7.93;3.35;;;;;;;;;;4998150;28;20153;-60
2024/01/13 09:54:38;;;;;;;11.35;3.90;;;;;;;;;;5013979;28;20116;-59
2024/01/13 09:57:06;;;;;;;9.73;4.00;;;;;;;;;;4973191;28;20141;-60
2024/01/13 09:59:33;;;;;;;8.20;3.80;;;;;;;;;;5002397;28;20453;-60
2024/01/13 10:02:01;;;;;;;7.50;3.55;;;;;;;;;;5004033;28;20135;-60
2024/01/13 10:04:27;;;;;;;11.20;4.15;;;;;;;;;;5012606;28;20069;-60
2024/01/13 10:06:58;;;;;;;7.88;3.97;;;;;;;;;;4979164;28;20124;-60
2024/01/13 10:09:24;;;;;;;10.15;4.03;;;;;;;;;;4977913;28;20137;-60
2024/01/13 10:11:52;;;;;;;8.75;4.68;;;;;;;;;;5004740;28;20121;-60
2024/01/13 10:14:19;;;;;;;12.45;5.00;;;;;;;;;;4975638;28;20421;-60
2024/01/13 10:16:46;;;;;;;14.15;4.88;;;;;;;;;;4975413;28;20114;-60
2024/01/13 10:19:13;;;;;;;7.50;3.67;;;;;;;;;;4989220;28;20057;-60
2024/01/13 10:21:48;;;;;;;11.35;4.05;;;;;;;;;;4983007;28;20058;-60
2024/01/13 10:24:21;;;;;;;11.75;4.88;;;;;;;;;;4973230;28;20052;-60
2024/01/13 10:26:48;;;;;;;10.88;4.22;;;;;;;;;;4975172;28;20054;-60
2024/01/13 10:29:15;;;;;;;11.32;5.07;;;;;;;;;;5003534;28;20110;-61
2024/01/13 10:31:41;;;;;;;11.18;5.15;;;;;;;;;;4950500;28;20046;-60
2024/01/13 10:34:10;;;;;;;16.27;6.60;;;;;;;;;;4959272;28;20129;-60
2024/01/13 10:36:38;;;;;;;;;;;;;;;;;;4990196;28;20117;-60
2024/01/13 10:39:05;;;;;;;9.82;4.30;;;;;;;;;;4971011;28;19961;-60
2024/01/13 10:41:35;;;;;;;9.00;4.05;;;;;;;;;;4940240;28;20419;-60
2024/01/13 10:44:09;;;;;;;10.55;4.57;;;;;;;;;;4952157;28;20058;-60
2024/01/13 10:46:42;;;;;;;12.40;4.97;;;;;;;;;;4985134;28;20074;-61
2024/01/13 10:49:15;;;;;;;10.52;3.95;;;;;;;;;;4984106;28;20141;-60
2024/01/13 10:51:43;;;;;;;11.18;4.88;;;;;;;;;;4930739;28;20899;-61
2024/01/13 10:54:10;;;;;;;9.50;4.53;;;;;;;;;;4999118;28;20057;-60
2024/01/13 10:56:40;;;;;;;15.07;6.03;;;;;;;;;;4991713;28;20046;-60
2024/01/13 10:59:08;;;;;;;35.28;12.80;;;;;;;;;;5005905;28;20080;-60
2024/01/13 11:01:35;;;;;;;12.60;5.97;;;;;;;;;;4994537;28;20317;-59
2024/01/13 11:04:05;;;;;;;11.60;4.95;;;;;;;;;;4972171;28;20074;-60
2024/01/13 11:06:32;;;;;;;10.75;4.72;;;;;;;;;;4952742;28;20069;-63
2024/01/13 11:09:01;;;;;;;10.60;4.43;;;;;;;;;;4959529;28;20050;-61
2024/01/13 11:11:29;;;;;;;;;;;;;;;;;;4952726;28;20058;-62
2024/01/13 11:14:03;;;;;;;10.50;5.03;;;;;;;;;;4988338;28;19969;-62
2024/01/13 11:16:30;;;;;;;14.45;6.30;;;;;;;;;;4975136;28;20050;-61
2024/01/13 11:18:58;;;;;;;12.35;5.00;;;;;;;;;;4988873;28;20057;-62
2024/01/13 11:21:29;;;;;;;12.00;5.72;;;;;;;;;;4962996;28;20059;-62
2024/01/13 11:24:01;;;;;;;11.63;5.57;;;;;;;;;;5016536;28;20058;-62
2024/01/13 11:26:38;;;;;;;7.32;2.88;;;;;;;;;;4975961;28;20098;-64
2024/01/13 11:29:17;;;;;;;13.45;6.22;;;;;;;;;;4975260;28;20195;-61
2024/01/13 11:31:45;;;;;;;14.93;6.15;;;;;;;;;;4973725;28;20136;-62
2024/01/13 11:34:14;;;;;;;15.80;5.82;;;;;;;;;;4998081;28;20062;-61
2024/01/13 11:36:42;;;;;;;17.38;7.00;;;;;;;;;;4992268;28;20047;-61
2024/01/13 11:39:10;;;;;;;20.13;8.50;;;;;;;;;;4991230;28;20148;-60
2024/01/13 11:41:39;;;;;;;15.88;6.70;;;;;;;;;;4962142;28;20076;-61
2024/01/13 11:44:05;;;;;;;;;;;;;;;;;;4988493;28;20067;-62
2024/01/13 11:46:38;;;;;;;14.38;6.13;;;;;;;;;;4975754;28;19925;-61
2024/01/13 11:49:05;;;;;;;27.88;10.52;;;;;;;;;;5006888;28;20058;-62
2024/01/13 11:51:56;;;;;;;18.65;8.10;;;;;;;;;;4977104;28;20146;-61
2024/01/13 11:54:23;;;;;;;26.00;10.40;;;;;;;;;;4982699;28;20061;-61
2024/01/13 11:56:50;;;;;;;16.17;6.68;;;;;;;;;;5008130;28;20046;-61
2024/01/13 11:59:18;;;;;;;21.13;8.38;;;;;;;;;;4985847;28;20136;-60
2024/01/13 12:01:47;;;;;;;19.98;8.60;;;;;;;;;;4970570;28;20062;-62
2024/01/13 12:04:14;;;;;;;23.90;10.25;;;;;;;;;;5009795;28;20121;-61
2024/01/13 12:06:43;;;;;;;22.83;10.18;;;;;;;;;;4990069;28;20137;-62
2024/01/13 12:09:16;;;;;;;19.85;7.90;;;;;;;;;;4996036;28;20046;-61
2024/01/13 12:11:52;;;;;;;21.52;8.48;;;;;;;;;;4969263;28;20059;-62
2024/01/13 12:14:19;;;;;;;20.60;8.15;;;;;;;;;;4984172;28;20070;-61
2024/01/13 12:16:53;;;;;;;22.63;9.10;;;;;;;;;;4976865;28;20050;-62
2024/01/13 12:19:24;;;;;;;18.33;8.07;;;;;;;;;;5003158;28;20046;-62
2024/01/13 12:21:53;;;;;;;20.58;8.95;;;;;;;;;;4934653;28;20112;-61
2024/01/13 12:24:25;;;;;;;23.95;8.93;;;;;;;;;;5002612;28;20135;-62
2024/01/13 12:26:54;;;;;;;26.55;9.13;;;;;;;;;;4979750;28;20137;-61
2024/01/13 12:29:24;;;;;;;22.50;9.35;;;;;;;;;;4971220;28;20046;-62
2024/01/13 12:31:54;;;;;;;24.50;9.32;;;;;;;;;;4977047;28;20053;-61
2024/01/13 12:34:21;;;;;;;23.20;9.40;;;;;;;;;;5000364;28;20129;-61
2024/01/13 12:36:48;;;;;;;23.40;9.32;;;;;;;;;;4978402;28;20082;-61
2024/01/13 12:39:15;;;;;;;16.08;7.03;;;;;;;;;;5007605;28;20113;-61
2024/01/13 12:41:42;;;;;;;20.13;8.60;;;;;;;;;;4991195;28;20100;-63
2024/01/13 12:44:10;;;;;;;19.70;8.95;;;;;;;;;;5009361;28;20046;-62
2024/01/13 12:46:37;;;;;;;26.93;10.93;;;;;;;;;;5010937;28;20057;-62
2024/01/13 12:49:20;;;;;;;22.65;9.57;;;;;;;;;;4978472;28;20069;-62
2024/01/13 12:51:54;;;;;;;31.05;10.68;;;;;;;;;;4997272;28;20058;-62
2024/01/13 12:54:21;;;;;;;20.42;8.60;;;;;;;;;;4989211;28;20054;-62
2024/01/13 12:56:49;;;;;;;23.88;9.77;;;;;;;;;;4981016;28;20042;-63
2024/01/13 12:59:18;;;;;;;23.40;10.18;;;;;;;;;;5008307;28;20054;-63
2024/01/13 13:01:44;;;;;;;;;;;;;;;;;;4979404;28;20450;-63
2024/01/13 13:04:11;;;;;;;27.13;10.75;;;;;;;;;;4980272;28;19973;-61
2024/01/13 13:06:40;;;;;;;22.95;9.73;;;;;;;;;;4994501;28;20144;-61
2024/01/13 13:09:10;;;;;;;28.73;11.45;;;;;;;;;;4992914;28;20042;-62
2024/01/13 13:11:41;;;;;;;29.02;12.13;;;;;;;;;;4981307;28;20058;-63
2024/01/13 13:14:08;;;;;;;23.90;9.70;;;;;;;;;;5005149;28;20070;-64
2024/01/13 13:16:36;;;;;;;31.30;10.05;;;;;;;;;;5006898;28;20061;-63
2024/01/13 13:19:03;;;;;;;22.88;10.82;;;;;;;;;;4979919;28;20046;-64
2024/01/13 13:21:30;;;;;;;24.20;10.07;;;;;;;;;;4999068;28;20136;-64
2024/01/13 13:24:04;;;;;;;18.70;7.55;;;;;;;;;;4991208;28;20104;-64
2024/01/13 13:26:31;;;;;;;25.45;10.82;;;;;;;;;;4992289;28;20054;-63
2024/01/13 13:29:00;;;;;;;25.45;9.75;;;;;;;;;;4997568;28;20050;-62
2024/01/13 13:31:28;;;;;;;27.85;10.90;;;;;;;;;;5003471;28;20047;-63
2024/01/13 13:33:58;;;;;;;26.67;11.07;;;;;;;;;;4970668;28;20074;-62
2024/01/13 13:36:25;;;;;;;20.98;9.10;;;;;;;;;;4971670;28;20062;-62
2024/01/13 13:38:52;;;;;;;30.27;11.55;;;;;;;;;;4967208;28;20082;-62
2024/01/13 13:41:20;;;;;;;29.13;11.57;;;;;;;;;;4957352;28;20058;-62
2024/01/13 13:43:47;;;;;;;;;;;;;;;;;;4994350;28;20137;-62
2024/01/13 13:46:17;;;;;;;23.73;8.98;;;;;;;;;;5003525;28;19925;-62
2024/01/13 13:48:43;;;;;;;27.00;10.25;;;;;;;;;;5008876;28;20109;-62
2024/01/13 13:51:13;;;;;;;28.88;11.40;;;;;;;;;;4984424;28;20068;-62
2024/01/13 13:53:45;;;;;;;34.85;12.05;;;;;;;;;;4940478;28;21105;-63
2024/01/13 13:56:14;;;;;;;31.25;12.10;;;;;;;;;;4983209;28;20074;-62
2024/01/13 13:58:43;;;;;;;28.40;10.80;;;;;;;;;;4955351;28;20057;-63
2024/01/13 14:01:10;;;;;;;26.20;10.13;;;;;;;;;;4971170;28;20055;-62
2024/01/13 14:03:36;;;;;;;22.10;7.63;;;;;;;;;;4974627;28;20083;-62
2024/01/13 14:06:03;;;;;;;21.67;9.15;;;;;;;;;;4999590;28;20110;-63
2024/01/13 14:08:30;;;;;;;27.88;10.70;;;;;;;;;;4987164;28;20058;-62
2024/01/13 14:10:57;;;;;;;31.80;11.82;;;;;;;;;;5007298;28;20054;-62
2024/01/13 14:13:25;;;;;;;27.88;11.55;;;;;;;;;;4967695;28;20069;-63
2024/01/13 14:15:59;;;;;;;31.63;12.18;;;;;;;;;;5005358;28;20065;-62
2024/01/13 14:18:32;;;;;;;30.08;11.30;;;;;;;;;;4999904;28;20124;-62
2024/01/13 14:21:00;;;;;;;29.63;9.98;;;;;;;;;;4976269;28;20042;-61
2024/01/13 14:23:27;;;;;;;;;;;;;;;;;;4849886;28;20148;-63
2024/01/13 14:25:59;;;;;;;33.00;13.20;;;;;;;;;;4886419;29;19937;-64
2024/01/13 14:28:28;;;;;;;24.35;9.35;;;;;;;;;;4968951;28;20047;-63
2024/01/13 14:30:57;;;;;;;23.58;9.70;;;;;;;;;;4971798;28;20050;-63
2024/01/13 14:33:24;;;;;;;32.83;12.95;;;;;;;;;;4960733;28;20058;-62
2024/01/13 14:35:51;;;;;;;24.25;8.93;;;;;;;;;;4976878;28;20445;-64
2024/01/13 14:38:19;;;;;;;77.70;26.52;;;;;;;;;;4986644;28;20050;-63
2024/01/13 14:40:47;;;;;;;29.20;11.07;;;;;;;;;;5009196;28;20082;-63